Time;durP1;ratioP1;P1;durP2;ratioP2;P2;SDS_P1;SDS_P2;PMS_P1;PMS_P2;Temp;Humidity;BMP_temperature;BMP_pressure;BME280_temperature;BME280_humidity;BME280_pressure;Samples;Min_cycle;Max_cycle;Signal;HPM_P1;HPM_P2
2023/01/20 00:02:17;;;;;;;22.47;11.40;;;;;;;;;;5012872;28;20021;-77
2023/01/20 00:04:42;;;;;;;32.63;11.73;;;;;;;;;;5013349;28;20112;-77
2023/01/20 00:07:08;;;;;;;23.13;11.67;;;;;;;;;;5013012;28;20646;-78
2023/01/20 00:09:33;;;;;;;31.37;11.83;;;;;;;;;;5017876;28;20093;-78
2023/01/20 00:11:59;;;;;;;31.97;13.10;;;;;;;;;;5017974;28;20060;-78
2023/01/20 00:14:26;;;;;;;24.27;11.70;;;;;;;;;;5017007;28;20025;-78
2023/01/20 00:16:52;;;;;;;30.37;12.30;;;;;;;;;;5014596;28;20034;-78
2023/01/20 00:19:17;;;;;;;30.83;12.67;;;;;;;;;;4996150;28;20030;-76
2023/01/20 00:21:43;;;;;;;23.33;12.33;;;;;;;;;;5012429;28;20026;-77
2023/01/20 00:24:09;;;;;;;22.60;11.67;;;;;;;;;;5012750;28;20025;-77
2023/01/20 00:26:34;;;;;;;31.50;12.23;;;;;;;;;;5014070;28;20185;-77
2023/01/20 00:29:00;;;;;;;28.03;12.23;;;;;;;;;;5012375;28;20030;-76
2023/01/20 00:31:27;;;;;;;27.40;11.23;;;;;;;;;;5013670;28;20491;-77
2023/01/20 00:33:56;;;;;;;31.83;13.47;;;;;;;;;;5012363;28;20025;-76
2023/01/20 00:36:23;;;;;;;29.10;11.90;;;;;;;;;;5012233;28;20030;-77
2023/01/20 00:38:49;;;;;;;34.60;13.00;;;;;;;;;;5026337;28;20029;-77
2023/01/20 00:41:15;;;;;;;23.90;11.67;;;;;;;;;;5032386;28;20048;-78
2023/01/20 00:43:41;;;;;;;27.77;13.37;;;;;;;;;;5033142;28;20030;-78
2023/01/20 00:46:07;;;;;;;25.70;12.00;;;;;;;;;;5033258;28;20064;-76
2023/01/20 00:48:33;;;;;;;27.33;12.17;;;;;;;;;;5031571;28;20466;-79
2023/01/20 00:50:59;;;;;;;29.67;12.87;;;;;;;;;;5032910;28;20037;-78
2023/01/20 00:53:24;;;;;;;27.10;12.63;;;;;;;;;;5031322;28;20025;-77
2023/01/20 00:55:50;;;;;;;21.90;11.10;;;;;;;;;;5031315;28;20029;-78
2023/01/20 00:58:15;;;;;;;30.50;12.20;;;;;;;;;;5032944;28;20272;-78
2023/01/20 01:00:41;;;;;;;26.67;10.87;;;;;;;;;;5031137;28;20442;-77
2023/01/20 01:03:09;;;;;;;26.97;11.70;;;;;;;;;;5031138;28;20034;-77
2023/01/20 01:05:34;;;;;;;23.53;11.53;;;;;;;;;;5031240;28;20167;-78
2023/01/20 01:08:00;;;;;;;24.23;12.37;;;;;;;;;;5031454;28;20495;-78
2023/01/20 01:10:26;;;;;;;30.70;11.93;;;;;;;;;;5031127;28;20580;-77
2023/01/20 01:12:53;;;;;;;23.27;12.30;;;;;;;;;;5030963;28;20088;-79
2023/01/20 01:15:18;;;;;;;28.00;13.33;;;;;;;;;;5031563;28;20029;-80
2023/01/20 01:17:44;;;;;;;32.00;12.80;;;;;;;;;;5032015;28;20183;-80
2023/01/20 01:20:12;;;;;;;34.73;11.80;;;;;;;;;;5032615;28;20600;-77
2023/01/20 01:22:38;;;;;;;32.70;13.07;;;;;;;;;;5016851;28;20029;-77
2023/01/20 01:25:03;;;;;;;28.87;13.17;;;;;;;;;;5032936;28;20024;-79
2023/01/20 01:27:29;;;;;;;24.40;11.30;;;;;;;;;;5036981;28;20022;-78
2023/01/20 01:29:54;;;;;;;28.63;13.37;;;;;;;;;;5034247;28;20035;-78
2023/01/20 01:32:21;;;;;;;29.47;13.97;;;;;;;;;;5031315;28;20112;-78
2023/01/20 01:34:46;;;;;;;28.07;12.30;;;;;;;;;;5030770;28;20395;-77
2023/01/20 01:37:12;;;;;;;29.97;13.40;;;;;;;;;;5029892;28;20124;-78
2023/01/20 01:39:39;;;;;;;27.93;12.17;;;;;;;;;;5010760;28;20024;-77
2023/01/20 01:42:17;;;;;;;26.00;13.53;;;;;;;;;;5012221;28;20098;-80
2023/01/20 01:45:11;;;;;;;33.30;14.13;;;;;;;;;;5007626;28;20062;-78
2023/01/20 01:47:51;;;;;;;37.30;15.00;;;;;;;;;;5010685;28;20026;-77
2023/01/20 01:50:21;;;;;;;32.93;14.83;;;;;;;;;;5023382;28;20025;-77
2023/01/20 01:52:51;;;;;;;83.87;19.67;;;;;;;;;;5031093;28;20036;-78
2023/01/20 01:55:19;;;;;;;35.57;14.10;;;;;;;;;;5032005;28;20021;-78
2023/01/20 01:57:46;;;;;;;29.93;14.60;;;;;;;;;;5032798;28;20101;-78
2023/01/20 02:00:12;;;;;;;23.23;13.50;;;;;;;;;;5031380;28;20108;-78
2023/01/20 02:02:38;;;;;;;32.17;12.07;;;;;;;;;;5030735;28;20024;-77
2023/01/20 02:05:04;;;;;;;35.33;13.40;;;;;;;;;;5030707;28;20026;-78
2023/01/20 02:07:31;;;;;;;27.33;11.77;;;;;;;;;;5032060;28;20034;-78
2023/01/20 02:09:57;;;;;;;28.67;13.50;;;;;;;;;;5032477;28;20038;-78
2023/01/20 02:12:22;;;;;;;24.57;12.47;;;;;;;;;;5041658;28;20048;-77
2023/01/20 02:14:51;;;;;;;29.00;13.00;;;;;;;;;;5036235;28;20430;-77
2023/01/20 02:17:29;;;;;;;28.17;13.40;;;;;;;;;;5034182;28;20032;-78
2023/01/20 02:20:19;;;;;;;31.70;13.10;;;;;;;;;;5031543;28;20022;-78
2023/01/20 02:23:03;;;;;;;28.07;13.47;;;;;;;;;;5033084;28;20030;-79
2023/01/20 02:25:56;;;;;;;27.47;12.07;;;;;;;;;;5032016;28;20079;-78
2023/01/20 02:28:53;;;;;;;28.57;11.70;;;;;;;;;;5031129;28;20045;-78
2023/01/20 02:31:49;;;;;;;27.30;12.77;;;;;;;;;;5031480;28;20045;-78
2023/01/20 02:34:20;;;;;;;29.13;12.10;;;;;;;;;;5030110;28;20060;-79
2023/01/20 02:37:11;;;;;;;26.17;12.10;;;;;;;;;;5029719;28;20042;-76
2023/01/20 02:40:02;;;;;;;28.33;11.27;;;;;;;;;;5010854;28;20025;-77
2023/01/20 02:42:52;;;;;;;25.00;10.68;;;;;;;;;;5002158;28;20095;-78
2023/01/20 02:45:25;;;;;;;25.63;11.23;;;;;;;;;;5011488;28;20081;-78
2023/01/20 02:47:59;;;;;;;29.13;11.20;;;;;;;;;;5010659;28;20029;-78
2023/01/20 02:50:35;;;;;;;27.40;12.37;;;;;;;;;;5009955;28;20083;-78
2023/01/20 02:53:02;;;;;;;24.40;11.00;;;;;;;;;;5009755;28;20509;-78
2023/01/20 02:55:45;;;;;;;25.47;12.07;;;;;;;;;;5010726;28;20088;-77
2023/01/20 02:58:38;;;;;;;27.23;12.03;;;;;;;;;;5010821;28;20119;-77
2023/01/20 03:01:13;;;;;;;25.03;11.33;;;;;;;;;;5009138;28;20056;-78
2023/01/20 03:03:43;;;;;;;23.10;11.93;;;;;;;;;;5008306;28;20163;-76
2023/01/20 03:06:22;;;;;;;28.40;12.13;;;;;;;;;;5009291;28;20473;-78
2023/01/20 03:08:51;;;;;;;23.83;11.63;;;;;;;;;;5009082;28;20103;-76
2023/01/20 03:11:17;;;;;;;31.63;13.37;;;;;;;;;;5009369;28;20071;-78
2023/01/20 03:14:13;;;;;;;30.83;13.17;;;;;;;;;;5009488;28;20124;-78
2023/01/20 03:16:40;;;;;;;26.97;11.57;;;;;;;;;;5006176;28;20541;-78
2023/01/20 03:19:05;;;;;;;35.87;13.00;;;;;;;;;;5011161;28;20022;-78
2023/01/20 03:21:34;;;;;;;25.30;12.80;;;;;;;;;;5009152;28;20680;-79
2023/01/20 03:24:02;;;;;;;31.00;12.60;;;;;;;;;;5008896;28;20034;-79
2023/01/20 03:26:29;;;;;;;28.77;11.90;;;;;;;;;;5008767;28;20501;-77
2023/01/20 03:28:56;;;;;;;26.33;11.23;;;;;;;;;;5010220;28;20022;-77
2023/01/20 03:31:31;;;;;;;28.70;11.03;;;;;;;;;;5009309;28;20037;-77
2023/01/20 03:34:01;;;;;;;28.93;11.97;;;;;;;;;;5011211;28;20014;-78
2023/01/20 03:36:29;;;;;;;27.50;11.77;;;;;;;;;;5012059;28;20026;-77
2023/01/20 03:38:56;;;;;;;26.27;11.17;;;;;;;;;;5025023;28;20014;-77
2023/01/20 03:41:40;;;;;;;23.50;10.83;;;;;;;;;;5035025;28;20025;-76
2023/01/20 03:44:31;;;;;;;23.33;11.67;;;;;;;;;;5040636;28;20029;-77
2023/01/20 03:47:00;;;;;;;25.23;12.00;;;;;;;;;;5029907;28;20045;-78
2023/01/20 03:49:28;;;;;;;19.67;10.47;;;;;;;;;;5028363;28;20073;-78
2023/01/20 03:52:00;;;;;;;22.40;11.10;;;;;;;;;;5028231;28;20029;-78
2023/01/20 03:54:32;;;;;;;25.17;11.13;;;;;;;;;;5030141;28;20021;-77
2023/01/20 03:57:10;;;;;;;25.97;12.27;;;;;;;;;;5030038;28;20063;-77
2023/01/20 03:59:39;;;;;;;27.93;12.17;;;;;;;;;;5028767;28;20392;-77
2023/01/20 04:02:06;;;;;;;25.70;11.47;;;;;;;;;;5030236;28;20017;-77
2023/01/20 04:04:36;;;;;;;24.07;10.33;;;;;;;;;;5028922;28;20083;-76
2023/01/20 04:07:05;;;;;;;23.90;11.27;;;;;;;;;;5029112;28;20079;-77
2023/01/20 04:09:33;;;;;;;27.13;10.93;;;;;;;;;;5031804;28;20029;-77
2023/01/20 04:12:00;;;;;;;21.50;9.50;;;;;;;;;;5042268;28;20101;-78
2023/01/20 04:14:26;;;;;;;24.67;11.23;;;;;;;;;;5030644;28;20037;-78
2023/01/20 04:16:55;;;;;;;29.13;10.87;;;;;;;;;;5030510;28;20037;-78
2023/01/20 04:19:20;;;;;;;28.47;11.67;;;;;;;;;;5030016;28;20119;-77
2023/01/20 04:21:55;;;;;;;24.97;10.40;;;;;;;;;;5029992;28;20073;-80
2023/01/20 04:24:28;;;;;;;30.70;12.50;;;;;;;;;;5028860;28;20033;-78
2023/01/20 04:26:54;;;;;;;32.97;12.30;;;;;;;;;;5029709;28;20037;-78
2023/01/20 04:29:19;;;;;;;39.20;12.33;;;;;;;;;;5028246;28;20078;-79
2023/01/20 04:31:45;;;;;;;23.83;11.07;;;;;;;;;;5029290;28;20025;-78
2023/01/20 04:34:14;;;;;;;24.77;10.63;;;;;;;;;;5028411;28;20113;-78
2023/01/20 04:36:40;;;;;;;26.23;10.73;;;;;;;;;;5029659;28;20068;-77
2023/01/20 04:39:06;;;;;;;27.17;11.00;;;;;;;;;;5028429;28;20474;-77
2023/01/20 04:41:31;;;;;;;25.97;12.23;;;;;;;;;;5028812;28;20101;-77
2023/01/20 04:43:57;;;;;;;22.07;10.87;;;;;;;;;;5028223;28;20021;-78
2023/01/20 04:46:23;;;;;;;25.33;11.63;;;;;;;;;;5030495;28;20049;-78
2023/01/20 04:48:48;;;;;;;25.77;11.40;;;;;;;;;;5033539;28;20032;-78
2023/01/20 04:51:14;;;;;;;23.47;11.20;;;;;;;;;;5033218;28;20470;-79
2023/01/20 04:53:39;;;;;;;27.93;12.30;;;;;;;;;;5033089;28;20032;-79
2023/01/20 04:56:10;;;;;;;30.20;12.97;;;;;;;;;;5032661;28;20033;-78
2023/01/20 04:58:36;;;;;;;22.33;11.00;;;;;;;;;;5031032;28;20033;-78
2023/01/20 05:01:01;;;;;;;28.63;12.30;;;;;;;;;;5033081;28;20029;-76
2023/01/20 05:03:27;;;;;;;27.63;11.57;;;;;;;;;;5032562;28;20030;-77
2023/01/20 05:05:53;;;;;;;25.27;11.57;;;;;;;;;;5033636;28;20466;-77
2023/01/20 05:08:19;;;;;;;26.33;12.00;;;;;;;;;;5031702;28;20021;-77
2023/01/20 05:10:44;;;;;;;30.33;13.23;;;;;;;;;;5032418;28;20032;-79
2023/01/20 05:13:10;;;;;;;28.43;12.40;;;;;;;;;;5031648;28;20025;-78
2023/01/20 05:15:35;;;;;;;30.60;12.43;;;;;;;;;;5032649;28;20474;-79
2023/01/20 05:18:01;;;;;;;27.73;13.07;;;;;;;;;;5032042;28;20219;-77
2023/01/20 05:20:28;;;;;;;29.50;13.90;;;;;;;;;;5031536;28;20079;-77
2023/01/20 05:22:53;;;;;;;24.83;12.23;;;;;;;;;;5014215;28;20044;-78
2023/01/20 05:25:19;;;;;;;25.20;11.23;;;;;;;;;;5032419;28;20025;-78
2023/01/20 05:27:46;;;;;;;32.23;13.53;;;;;;;;;;5030390;28;20376;-78
2023/01/20 05:30:11;;;;;;;28.37;12.50;;;;;;;;;;5030651;28;20025;-77
2023/01/20 05:32:37;;;;;;;28.10;10.53;;;;;;;;;;5031922;28;20037;-77
2023/01/20 05:35:03;;;;;;;23.40;11.00;;;;;;;;;;5032120;28;20112;-77
2023/01/20 05:37:28;;;;;;;28.67;12.00;;;;;;;;;;5031272;28;20033;-78
2023/01/20 05:39:54;;;;;;;30.03;12.03;;;;;;;;;;5032099;28;20033;-77
2023/01/20 05:42:19;;;;;;;28.00;11.97;;;;;;;;;;5030035;28;20048;-77
2023/01/20 05:44:45;;;;;;;25.57;11.50;;;;;;;;;;5030232;28;20075;-78
2023/01/20 05:47:15;;;;;;;27.17;12.20;;;;;;;;;;5031135;28;20030;-78
2023/01/20 05:49:41;;;;;;;26.97;12.00;;;;;;;;;;5030851;28;20369;-78
2023/01/20 05:52:06;;;;;;;25.40;10.53;;;;;;;;;;5031922;28;20041;-77
2023/01/20 05:54:32;;;;;;;25.90;11.93;;;;;;;;;;5032371;28;20163;-79
2023/01/20 05:56:59;;;;;;;25.60;11.30;;;;;;;;;;5031336;28;20029;-77
2023/01/20 05:59:24;;;;;;;24.43;11.80;;;;;;;;;;5032113;28;20025;-77
2023/01/20 06:01:50;;;;;;;22.20;10.53;;;;;;;;;;5030164;28;20108;-77
2023/01/20 06:04:15;;;;;;;27.80;10.83;;;;;;;;;;5030386;28;20025;-78
2023/01/20 06:06:41;;;;;;;28.73;10.70;;;;;;;;;;5031585;28;20083;-78
2023/01/20 06:09:08;;;;;;;22.50;11.27;;;;;;;;;;5031200;28;20031;-76
2023/01/20 06:11:34;;;;;;;22.27;11.17;;;;;;;;;;5041802;28;20026;-77
2023/01/20 06:13:59;;;;;;;30.63;15.53;;;;;;;;;;5036845;28;20798;-78
2023/01/20 06:16:25;;;;;;;28.33;12.63;;;;;;;;;;5019216;28;20172;-78
2023/01/20 06:18:50;;;;;;;29.17;12.00;;;;;;;;;;5027554;28;20029;-81
2023/01/20 06:21:16;;;;;;;30.90;12.27;;;;;;;;;;5030448;28;20026;-80
2023/01/20 06:23:41;;;;;;;23.13;10.87;;;;;;;;;;5030774;28;20064;-77
2023/01/20 06:26:10;;;;;;;22.60;11.20;;;;;;;;;;5031473;28;20021;-78
2023/01/20 06:28:38;;;;;;;38.83;12.47;;;;;;;;;;5031126;28;20025;-79
2023/01/20 06:31:09;;;;;;;27.60;11.27;;;;;;;;;;5030215;28;20032;-82
2023/01/20 06:33:35;;;;;;;25.90;10.80;;;;;;;;;;5031476;28;20056;-82
2023/01/20 06:36:01;;;;;;;29.27;12.07;;;;;;;;;;5016364;28;20025;-80
2023/01/20 06:38:32;;;;;;;33.67;11.07;;;;;;;;;;5031773;28;20038;-82
2023/01/20 06:41:00;;;;;;;25.50;11.77;;;;;;;;;;5014085;28;20060;-81
2023/01/20 06:43:28;;;;;;;38.87;13.73;;;;;;;;;;5029259;28;20022;-82
2023/01/20 06:46:01;;;;;;;25.47;12.80;;;;;;;;;;5031390;28;20052;-79
2023/01/20 06:48:28;;;;;;;29.20;13.43;;;;;;;;;;5030247;28;20589;-79
2023/01/20 06:51:04;;;;;;;29.77;12.73;;;;;;;;;;5029691;28;20057;-83
2023/01/20 06:53:30;;;;;;;31.60;12.33;;;;;;;;;;5015259;28;20036;-86
2023/01/20 06:55:57;;;;;;;26.83;12.20;;;;;;;;;;5033687;28;20021;-88
2023/01/20 06:58:24;;;;;;;25.50;11.67;;;;;;;;;;5034542;28;20083;-86
2023/01/20 07:00:51;;;;;;;24.80;12.60;;;;;;;;;;5014388;28;20087;-82
2023/01/20 07:03:17;;;;;;;33.37;13.30;;;;;;;;;;5030222;28;20038;-82
2023/01/20 07:05:43;;;;;;;23.57;11.53;;;;;;;;;;5028749;28;20083;-80
2023/01/20 07:08:10;;;;;;;36.17;12.77;;;;;;;;;;5013816;28;20116;-81
2023/01/20 07:10:36;;;;;;;33.57;13.37;;;;;;;;;;5029254;28;20089;-80
2023/01/20 07:13:02;;;;;;;34.03;12.77;;;;;;;;;;5025030;28;20116;-80
2023/01/20 07:15:27;;;;;;;36.77;15.27;;;;;;;;;;5037195;28;20068;-82
2023/01/20 07:17:53;;;;;;;26.80;13.47;;;;;;;;;;5038398;28;20041;-85
2023/01/20 07:20:19;;;;;;;34.80;12.60;;;;;;;;;;5032726;28;20025;-81
2023/01/20 07:22:44;;;;;;;38.60;14.00;;;;;;;;;;5034938;28;20013;-83
2023/01/20 07:25:10;;;;;;;27.77;12.90;;;;;;;;;;5053057;28;20056;-82
2023/01/20 07:27:35;;;;;;;36.67;12.77;;;;;;;;;;5039951;28;20473;-84
2023/01/20 07:30:01;;;;;;;29.30;11.70;;;;;;;;;;5029755;28;20477;-85
2023/01/20 07:32:30;;;;;;;26.47;11.93;;;;;;;;;;5030355;28;20483;-82
2023/01/20 07:34:55;;;;;;;31.27;12.87;;;;;;;;;;5027834;28;20048;-83
2023/01/20 07:37:21;;;;;;;32.47;12.70;;;;;;;;;;5024398;28;20026;-85
2023/01/20 07:39:47;;;;;;;25.80;12.53;;;;;;;;;;5033873;28;20043;-85
2023/01/20 07:42:12;;;;;;;30.40;14.10;;;;;;;;;;5032856;28;20051;-85
2023/01/20 07:44:38;;;;;;;26.47;12.73;;;;;;;;;;5033790;28;20045;-78
2023/01/20 07:47:04;;;;;;;31.43;14.20;;;;;;;;;;5044666;28;20033;-83
2023/01/20 07:49:31;;;;;;;28.40;14.03;;;;;;;;;;5016811;28;20389;-85
2023/01/20 07:51:59;;;;;;;28.43;11.87;;;;;;;;;;5029614;28;20463;-83
2023/01/20 07:54:24;;;;;;;28.50;12.03;;;;;;;;;;5033221;28;20104;-81
2023/01/20 07:56:50;;;;;;;28.63;12.30;;;;;;;;;;5030637;28;20126;-81
2023/01/20 07:59:16;;;;;;;31.27;12.13;;;;;;;;;;5028515;28;20033;-84
2023/01/20 08:01:42;;;;;;;29.20;12.33;;;;;;;;;;5031843;28;20048;-83
2023/01/20 08:04:07;;;;;;;35.23;13.50;;;;;;;;;;5030995;28;20494;-84
2023/01/20 08:06:33;;;;;;;27.73;12.40;;;;;;;;;;5029268;28;20155;-83
2023/01/20 08:09:00;;;;;;;29.77;12.77;;;;;;;;;;5021553;28;20033;-82
2023/01/20 08:11:26;;;;;;;35.33;13.13;;;;;;;;;;5026688;28;20444;-79
2023/01/20 08:13:52;;;;;;;22.17;10.67;;;;;;;;;;5027186;28;20029;-83
2023/01/20 08:16:19;;;;;;;26.07;11.80;;;;;;;;;;5021655;28;20061;-83
2023/01/20 08:18:46;;;;;;;32.80;13.33;;;;;;;;;;5033735;28;20052;-80
2023/01/20 08:21:29;;;;;;;29.33;11.60;;;;;;;;;;5025666;28;20041;-83
2023/01/20 08:23:59;;;;;;;28.10;12.77;;;;;;;;;;5033456;28;20025;-82
2023/01/20 08:26:28;;;;;;;30.20;12.43;;;;;;;;;;5033081;28;20091;-81
2023/01/20 08:28:55;;;;;;;28.97;11.90;;;;;;;;;;5026582;28;20033;-80
2023/01/20 08:31:23;;;;;;;23.87;11.97;;;;;;;;;;5019947;28;20049;-85
2023/01/20 08:33:54;;;;;;;27.37;13.43;;;;;;;;;;5050649;28;20029;-82
2023/01/20 08:36:23;;;;;;;31.60;13.50;;;;;;;;;;5048481;28;20032;-84
2023/01/20 08:38:49;;;;;;;74.60;23.83;;;;;;;;;;5039254;28;20039;-85
2023/01/20 08:41:20;;;;;;;32.63;13.67;;;;;;;;;;5042050;28;20034;-88
2023/01/20 08:43:46;;;;;;;26.80;11.97;;;;;;;;;;5037715;28;20029;-88
2023/01/20 08:46:15;;;;;;;26.80;12.70;;;;;;;;;;5034451;28;20151;-84
2023/01/20 08:48:43;;;;;;;25.13;12.67;;;;;;;;;;5018161;28;20045;-90
2023/01/20 08:51:16;;;;;;;30.53;12.90;;;;;;;;;;5033247;28;20044;-87
2023/01/20 08:53:43;;;;;;;30.83;13.97;;;;;;;;;;5030013;28;20469;-86
2023/01/20 08:56:09;;;;;;;24.87;12.70;;;;;;;;;;5035449;28;20048;-84
2023/01/20 08:58:35;;;;;;;30.03;14.57;;;;;;;;;;5027851;28;20485;-86
2023/01/20 09:01:01;;;;;;;26.00;13.37;;;;;;;;;;5031458;28;20067;-85
2023/01/20 09:03:27;;;;;;;33.10;13.00;;;;;;;;;;5026923;28;20046;-88
2023/01/20 09:05:52;;;;;;;24.63;12.63;;;;;;;;;;5031153;28;20103;-85
2023/01/20 09:08:20;;;;;;;38.13;15.17;;;;;;;;;;5031663;28;20205;-83
2023/01/20 09:10:49;;;;;;;35.87;14.53;;;;;;;;;;5027097;28;20037;-85
2023/01/20 09:13:14;;;;;;;29.07;12.03;;;;;;;;;;5014324;28;20033;-83
2023/01/20 09:15:40;;;;;;;35.80;15.83;;;;;;;;;;5031106;28;20072;-83
2023/01/20 09:18:06;;;;;;;27.80;13.53;;;;;;;;;;5029643;28;20053;-85
2023/01/20 09:20:33;;;;;;;38.00;13.60;;;;;;;;;;5026508;28;20036;-85
2023/01/20 09:23:02;;;;;;;29.53;12.20;;;;;;;;;;5031206;28;20029;-85
2023/01/20 09:25:28;;;;;;;32.47;15.67;;;;;;;;;;5028629;28;20049;-84
2023/01/20 09:27:53;;;;;;;28.57;12.57;;;;;;;;;;5029200;28;20394;-85
2023/01/20 09:30:23;;;;;;;30.97;13.50;;;;;;;;;;5030151;28;20465;-82
2023/01/20 09:32:52;;;;;;;35.97;15.33;;;;;;;;;;5029978;28;20076;-87
2023/01/20 09:35:18;;;;;;;27.00;13.50;;;;;;;;;;5027044;28;20187;-86
2023/01/20 09:43:54;;;;;;;28.03;14.07;;;;;;;;;;5023443;28;20060;-85
2023/01/20 09:46:36;;;;;;;32.03;14.87;;;;;;;;;;5018528;28;20046;-88
2023/01/20 09:55:23;;;;;;;25.93;13.47;;;;;;;;;;5027858;28;20036;-85
2023/01/20 09:58:01;;;;;;;42.47;16.70;;;;;;;;;;5016992;28;20282;-86
2023/01/20 10:00:32;;;;;;;32.47;13.83;;;;;;;;;;5030924;28;20185;-85
2023/01/20 10:03:12;;;;;;;34.65;14.68;;;;;;;;;;5027133;28;20059;-87
2023/01/20 10:05:40;;;;;;;26.23;12.23;;;;;;;;;;5025428;28;20033;-86
2023/01/20 10:08:12;;;;;;;29.57;13.17;;;;;;;;;;5018806;28;20116;-85
2023/01/20 10:10:55;;;;;;;26.02;11.98;;;;;;;;;;5026157;28;20033;-86
2023/01/20 10:13:31;;;;;;;24.87;13.70;;;;;;;;;;5029020;28;20057;-83
2023/01/20 10:16:01;;;;;;;24.70;12.37;;;;;;;;;;5030669;28;20059;-88
2023/01/20 10:18:50;;;;;;;33.83;13.97;;;;;;;;;;5033115;28;20455;-85
2023/01/20 10:21:24;;;;;;;36.37;13.73;;;;;;;;;;5037108;28;20143;-88
2023/01/20 10:23:54;;;;;;;24.00;12.30;;;;;;;;;;5028213;28;20021;-85
2023/01/20 10:26:32;;;;;;;24.20;12.30;;;;;;;;;;5033494;28;20052;-83
2023/01/20 10:29:00;;;;;;;25.10;12.00;;;;;;;;;;5027892;28;20037;-85
2023/01/20 10:31:30;;;;;;;28.67;12.37;;;;;;;;;;5029810;28;20525;-87
2023/01/20 10:34:00;;;;;;;31.23;13.67;;;;;;;;;;5020740;28;20052;-84
2023/01/20 10:36:37;;;;;;;35.20;15.83;;;;;;;;;;5030099;28;20075;-84
2023/01/20 10:39:21;;;;;;;37.83;15.57;;;;;;;;;;5028236;28;20064;-85
2023/01/20 10:41:51;;;;;;;38.00;16.97;;;;;;;;;;5026919;28;20092;-84
2023/01/20 10:44:17;;;;;;;37.37;15.90;;;;;;;;;;5012403;28;20187;-87
2023/01/20 10:47:24;;;;;;;33.57;17.20;;;;;;;;;;5032944;28;20103;-86
2023/01/20 10:50:22;;;;;;;34.63;17.13;;;;;;;;;;5027167;28;20117;-88
2023/01/20 10:52:55;;;;;;;38.70;16.97;;;;;;;;;;5032894;28;20337;-84
2023/01/20 10:55:46;;;;;;;31.70;15.67;;;;;;;;;;5022400;28;20068;-86
2023/01/20 10:58:11;;;;;;;37.73;16.20;;;;;;;;;;5030993;28;20032;-87
2023/01/20 11:00:39;;;;;;;40.83;16.63;;;;;;;;;;5026856;28;20029;-86
2023/01/20 11:03:09;;;;;;;40.53;17.13;;;;;;;;;;5028908;28;20060;-86
2023/01/20 11:05:37;;;;;;;36.63;16.47;;;;;;;;;;5012145;28;20410;-86
2023/01/20 11:08:15;;;;;;;32.50;14.80;;;;;;;;;;5030345;28;20060;-86
2023/01/20 11:10:41;;;;;;;30.33;14.50;;;;;;;;;;5025252;28;20064;-86
2023/01/20 11:13:09;;;;;;;28.37;13.73;;;;;;;;;;5029031;28;20040;-87
2023/01/20 11:15:46;;;;;;;34.00;14.63;;;;;;;;;;5021753;28;20026;-86
2023/01/20 11:18:14;;;;;;;30.77;14.50;;;;;;;;;;5035556;28;20037;-84
2023/01/20 11:20:53;;;;;;;28.77;14.00;;;;;;;;;;5034062;28;20041;-85
2023/01/20 11:23:25;;;;;;;31.47;15.27;;;;;;;;;;5029863;28;20725;-87
2023/01/20 11:26:16;;;;;;;36.00;17.57;;;;;;;;;;5030093;28;20045;-86
2023/01/20 11:29:19;;;;;;;38.57;17.83;;;;;;;;;;5029640;28;20033;-87
2023/01/20 11:31:50;;;;;;;49.33;18.63;;;;;;;;;;5017793;28;20406;-83
2023/01/20 11:34:27;;;;;;;41.10;17.45;;;;;;;;;;5029624;28;20025;-85
2023/01/20 11:37:08;;;;;;;37.70;18.17;;;;;;;;;;5028879;28;20063;-85
2023/01/20 11:39:40;;;;;;;28.27;14.53;;;;;;;;;;5029006;28;20052;-87
2023/01/20 11:42:39;;;;;;;33.90;15.53;;;;;;;;;;5024975;28;21084;-85
2023/01/20 11:45:26;;;;;;;32.30;17.93;;;;;;;;;;5026629;28;20145;-87
2023/01/20 11:48:14;;;;;;;32.87;17.93;;;;;;;;;;5028233;28;20112;-86
2023/01/20 11:50:44;;;;;;;37.30;18.30;;;;;;;;;;5022348;28;20124;-83
2023/01/20 11:53:28;;;;;;;35.50;17.03;;;;;;;;;;5023323;28;20030;-87
2023/01/20 11:56:02;;;;;;;32.90;15.13;;;;;;;;;;5014513;28;20048;-85
2023/01/20 11:59:02;;;;;;;35.80;16.57;;;;;;;;;;5027808;28;20033;-88
2023/01/20 12:01:48;;;;;;;29.63;14.80;;;;;;;;;;5026411;28;20025;-85
2023/01/20 12:04:39;;;;;;;38.03;17.00;;;;;;;;;;5025243;28;20037;-84
2023/01/20 12:07:21;;;;;;;34.70;16.93;;;;;;;;;;5013372;28;20041;-85
2023/01/20 12:09:52;;;;;;;53.30;17.50;;;;;;;;;;5026667;28;20060;-85
2023/01/20 12:12:29;;;;;;;29.17;16.07;;;;;;;;;;5034386;28;20066;-83
2023/01/20 12:15:20;;;;;;;38.77;16.03;;;;;;;;;;5018672;28;20040;-82
2023/01/20 12:18:14;;;;;;;34.80;15.55;;;;;;;;;;5025204;28;20112;-87
2023/01/20 12:20:54;;;;;;;34.13;15.83;;;;;;;;;;5029434;28;20033;-87
2023/01/20 12:23:44;;;;;;;34.00;16.73;;;;;;;;;;5012784;28;20025;-89
2023/01/20 12:26:13;;;;;;;31.83;15.90;;;;;;;;;;5028849;28;20018;-91
2023/01/20 12:28:57;;;;;;;32.33;15.37;;;;;;;;;;5036410;28;20211;-80
2023/01/20 12:31:23;;;;;;;38.90;16.80;;;;;;;;;;5040161;28;20017;-83
2023/01/20 12:33:54;;;;;;;36.37;16.40;;;;;;;;;;5036272;28;20025;-80
2023/01/20 12:36:48;;;;;;;34.27;16.47;;;;;;;;;;5027978;28;20120;-82
2023/01/20 12:39:41;;;;;;;35.60;18.10;;;;;;;;;;5025059;28;20026;-83
2023/01/20 12:42:19;;;;;;;38.53;17.23;;;;;;;;;;5028257;28;20043;-85
2023/01/20 12:44:50;;;;;;;32.43;18.97;;;;;;;;;;5021757;28;20030;-84
2023/01/20 12:47:34;;;;;;;34.10;16.50;;;;;;;;;;5010871;28;20036;-82
2023/01/20 12:50:12;;;;;;;29.67;15.53;;;;;;;;;;5030399;28;20033;-81
2023/01/20 12:53:14;;;;;;;33.80;16.73;;;;;;;;;;5025801;28;20029;-88
2023/01/20 12:56:03;;;;;;;31.73;16.73;;;;;;;;;;5011827;28;20029;-86
2023/01/20 12:59:10;;;;;;;55.43;19.37;;;;;;;;;;5027654;28;20037;-85
2023/01/20 13:01:55;;;;;;;39.47;18.07;;;;;;;;;;5020693;28;20026;-85
2023/01/20 13:04:35;;;;;;;33.80;17.93;;;;;;;;;;5028940;28;20052;-85
2023/01/20 13:07:36;;;;;;;39.43;17.30;;;;;;;;;;5033297;28;20083;-81
2023/01/20 13:10:29;;;;;;;40.43;18.23;;;;;;;;;;5034764;28;20079;-85
2023/01/20 13:13:16;;;;;;;28.57;15.80;;;;;;;;;;5030247;28;20029;-85
2023/01/20 13:15:47;;;;;;;34.40;16.43;;;;;;;;;;5029412;28;20026;-83
2023/01/20 13:18:50;;;;;;;40.17;16.93;;;;;;;;;;5027706;28;20524;-83
2023/01/20 13:21:17;;;;;;;36.87;17.67;;;;;;;;;;5030027;28;20044;-82
2023/01/20 13:23:44;;;;;;;35.07;16.60;;;;;;;;;;5026271;28;20026;-83
2023/01/20 13:26:12;;;;;;;38.40;17.00;;;;;;;;;;5012807;28;20038;-83
2023/01/20 13:28:50;;;;;;;34.63;15.97;;;;;;;;;;5030300;28;20025;-83
2023/01/20 13:31:42;;;;;;;38.97;17.57;;;;;;;;;;5030620;28;20029;-86
2023/01/20 13:34:20;;;;;;;;;;;;;;;;;;5031356;28;20401;-87
2023/01/20 13:37:26;;;;;;;31.83;16.30;;;;;;;;;;5033816;28;20371;-86
2023/01/20 13:39:53;;;;;;;33.90;16.97;;;;;;;;;;5038822;28;20033;-87
2023/01/20 13:42:38;;;;;;;30.67;15.20;;;;;;;;;;5031371;28;20021;-83
2023/01/20 13:45:16;;;;;;;37.73;16.57;;;;;;;;;;5013028;28;20451;-85
2023/01/20 13:48:04;;;;;;;35.77;16.33;;;;;;;;;;5021165;28;21659;-83
2023/01/20 13:50:37;;;;;;;33.63;16.03;;;;;;;;;;5020712;28;20071;-86
2023/01/20 13:53:13;;;;;;;37.93;16.90;;;;;;;;;;5028919;28;20036;-85
2023/01/20 13:55:44;;;;;;;39.47;16.67;;;;;;;;;;5025947;28;20029;-85
2023/01/20 13:58:13;;;;;;;28.63;14.57;;;;;;;;;;5026127;28;20022;-84
2023/01/20 14:00:39;;;;;;;32.17;15.30;;;;;;;;;;5023023;28;20040;-83
2023/01/20 14:03:35;;;;;;;46.50;16.10;;;;;;;;;;5009443;28;20057;-85
2023/01/20 14:06:04;;;;;;;37.87;16.20;;;;;;;;;;5025438;28;20064;-83
2023/01/20 14:08:37;;;;;;;32.17;15.23;;;;;;;;;;5022166;28;20082;-82
2023/01/20 14:11:15;;;;;;;36.37;15.43;;;;;;;;;;5027686;28;20489;-85
2023/01/20 14:13:50;;;;;;;30.73;14.43;;;;;;;;;;5031277;28;20108;-81
2023/01/20 14:16:25;;;;;;;35.70;15.83;;;;;;;;;;5030779;28;20029;-83
2023/01/20 14:18:55;;;;;;;35.53;14.87;;;;;;;;;;5035314;28;20497;-84
2023/01/20 14:21:26;;;;;;;29.73;14.87;;;;;;;;;;5033101;28;20033;-83
2023/01/20 14:23:52;;;;;;;39.27;15.90;;;;;;;;;;5028926;28;20033;-85
2023/01/20 14:26:23;;;;;;;40.13;17.97;;;;;;;;;;5028163;28;20052;-85
2023/01/20 14:28:54;;;;;;;32.00;15.23;;;;;;;;;;5029201;28;20033;-87
2023/01/20 14:31:28;;;;;;;37.53;15.27;;;;;;;;;;5020712;28;20041;-86
2023/01/20 14:34:00;;;;;;;34.20;15.17;;;;;;;;;;5028562;28;20040;-85
2023/01/20 14:36:30;;;;;;;32.45;15.80;;;;;;;;;;5011646;28;20503;-86
2023/01/20 14:39:00;;;;;;;30.33;14.60;;;;;;;;;;5026917;28;20111;-86
2023/01/20 14:41:30;;;;;;;35.37;16.10;;;;;;;;;;5025412;28;20044;-84
2023/01/20 14:43:56;;;;;;;30.47;16.13;;;;;;;;;;5018142;28;20033;-85
2023/01/20 14:46:23;;;;;;;36.80;16.87;;;;;;;;;;5030078;28;20045;-83
2023/01/20 14:48:51;;;;;;;33.67;16.50;;;;;;;;;;5026514;28;20056;-83
2023/01/20 14:51:17;;;;;;;34.43;16.17;;;;;;;;;;5027427;28;20026;-82
2023/01/20 14:53:43;;;;;;;38.77;18.07;;;;;;;;;;5028878;28;20454;-84
2023/01/20 14:56:20;;;;;;;52.20;20.23;;;;;;;;;;5031346;28;20030;-85
2023/01/20 14:58:48;;;;;;;47.67;20.67;;;;;;;;;;5021382;28;20060;-84